Time;durP1;ratioP1;P1;durP2;ratioP2;P2;SDS_P1;SDS_P2;PMS_P1;PMS_P2;Temp;Humidity;BMP_temperature;BMP_pressure;BME280_temperature;BME280_humidity;BME280_pressure;Samples;Min_cycle;Max_cycle;Signal;HPM_P1;HPM_P2
2021/05/15 00:00:10;;;;;;;2.30;2.10;;;20.40;49.50;;;;;;3145656;28;20048;-76
2021/05/15 00:01:41;;;;;;;2.30;2.10;;;20.40;49.60;;;;;;3146437;28;20500;-77
2021/05/15 00:03:12;;;;;;;2.33;1.95;;;20.30;49.50;;;;;;3145915;28;20047;-76
2021/05/15 00:04:43;;;;;;;2.10;2.00;;;20.40;49.50;;;;;;3146336;28;20045;-76
2021/05/15 00:06:14;;;;;;;2.30;2.10;;;20.40;49.50;;;;;;3146707;28;20048;-76
2021/05/15 00:07:45;;;;;;;2.30;2.10;;;20.40;49.50;;;;;;3146383;28;20102;-76
2021/05/15 00:09:17;;;;;;;2.28;2.10;;;20.40;49.50;;;;;;3145882;28;20045;-76
2021/05/15 00:10:48;;;;;;;2.25;2.05;;;20.40;49.50;;;;;;3146245;28;20051;-76
2021/05/15 00:12:19;;;;;;;2.13;1.75;;;20.40;49.50;;;;;;3146619;28;20083;-76
2021/05/15 00:13:50;;;;;;;2.58;2.10;;;20.40;49.50;;;;;;3145858;28;20048;-76
2021/05/15 00:15:22;;;;;;;2.10;1.90;;;20.40;49.50;;;;;;3145696;28;20120;-77
2021/05/15 00:16:53;;;;;;;3.20;2.00;;;20.30;49.50;;;;;;3146451;28;20424;-76
2021/05/15 00:18:24;;;;;;;2.72;2.20;;;20.30;49.40;;;;;;3145974;28;20036;-76
2021/05/15 00:19:55;;;;;;;2.40;2.20;;;20.40;49.50;;;;;;3146077;28;20048;-76
2021/05/15 00:21:26;;;;;;;1.98;1.88;;;20.40;49.50;;;;;;3146397;28;20519;-76
2021/05/15 00:22:58;;;;;;;2.45;2.00;;;20.40;49.50;;;;;;3145922;28;20547;-76
2021/05/15 00:24:29;;;;;;;2.42;2.22;;;20.40;49.50;;;;;;3146214;28;20055;-76
2021/05/15 00:26:01;;;;;;;2.28;2.08;;;20.40;49.50;;;;;;3146421;28;20056;-78
2021/05/15 00:27:32;;;;;;;2.30;2.10;;;20.40;49.50;;;;;;3146130;28;20056;-76
2021/05/15 00:29:03;;;;;;;2.30;2.10;;;20.40;49.50;;;;;;3145929;28;20048;-77
2021/05/15 00:30:34;;;;;;;2.30;2.10;;;20.40;49.40;;;;;;3145317;28;20049;-76
2021/05/15 00:32:06;;;;;;;2.20;2.10;;;20.40;49.50;;;;;;3146334;28;20048;-76
2021/05/15 00:33:37;;;;;;;2.88;2.30;;;20.30;49.40;;;;;;3145877;28;20045;-76
2021/05/15 00:35:10;;;;;;;2.72;2.08;;;20.40;49.50;;;;;;3146225;28;20052;-77
2021/05/15 00:36:41;;;;;;;2.35;2.13;;;20.40;49.50;;;;;;3146122;28;20152;-76
2021/05/15 00:38:13;;;;;;;2.33;2.13;;;20.40;49.50;;;;;;3145689;28;20573;-76
2021/05/15 00:39:43;;;;;;;2.03;1.88;;;20.40;49.50;;;;;;3146129;28;20048;-77
2021/05/15 00:41:15;;;;;;;2.22;2.00;;;20.30;49.40;;;;;;3146315;28;20071;-76
2021/05/15 00:42:47;;;;;;;2.38;2.10;;;20.40;49.50;;;;;;3145988;28;20055;-76
2021/05/15 00:44:29;;;;;;;2.60;2.10;;;20.40;49.50;;;;;;3145684;28;20105;-76
2021/05/15 00:46:00;;;;;;;2.47;2.03;;;20.40;49.50;;;;;;3145490;28;20083;-76
2021/05/15 00:47:31;;;;;;;2.40;2.20;;;20.40;49.50;;;;;;3146249;28;20060;-76
2021/05/15 00:49:02;;;;;;;2.45;2.25;;;20.40;49.50;;;;;;3145845;28;20063;-77
2021/05/15 00:50:33;;;;;;;2.40;2.20;;;20.40;49.50;;;;;;3145777;28;20051;-76
2021/05/15 00:52:05;;;;;;;2.15;1.92;;;20.40;49.50;;;;;;3146339;28;20554;-76
2021/05/15 00:53:37;;;;;;;2.47;2.28;;;20.30;49.40;;;;;;3145665;28;20052;-76
2021/05/15 00:55:09;;;;;;;2.25;2.05;;;20.30;49.40;;;;;;3145956;28;20045;-76
2021/05/15 00:56:40;;;;;;;2.63;2.30;;;20.30;49.40;;;;;;3146563;28;20080;-76
2021/05/15 00:58:11;;;;;;;2.40;2.20;;;20.40;49.50;;;;;;3146604;28;20409;-76
2021/05/15 00:59:42;;;;;;;2.35;2.15;;;20.40;50.10;;;;;;3146526;28;20048;-77
2021/05/15 01:01:13;;;;;;;2.33;2.13;;;20.30;49.40;;;;;;3146050;28;20539;-77
2021/05/15 01:02:44;;;;;;;2.30;2.10;;;20.40;49.50;;;;;;3146402;28;20059;-76
2021/05/15 01:04:15;;;;;;;2.10;1.92;;;20.40;49.50;;;;;;3145620;28;20044;-76
2021/05/15 01:05:46;;;;;;;2.60;2.20;;;20.40;49.40;;;;;;3145938;28;20098;-76
2021/05/15 01:07:17;;;;;;;2.78;2.17;;;20.40;49.40;;;;;;3146027;28;20052;-76
2021/05/15 01:08:49;;;;;;;2.60;2.35;;;20.40;49.50;;;;;;3145581;28;20060;-76
2021/05/15 01:10:20;;;;;;;2.22;2.03;;;20.40;49.40;;;;;;3145883;28;20222;-76
2021/05/15 01:11:51;;;;;;;2.30;2.10;;;20.40;49.40;;;;;;3146034;28;20402;-76
2021/05/15 01:13:27;;;;;;;2.55;2.30;;;20.40;49.50;;;;;;3145575;28;20048;-77
2021/05/15 01:14:58;;;;;;;2.63;2.40;;;20.40;49.40;;;;;;3146308;28;20495;-76
2021/05/15 01:16:31;;;;;;;2.53;2.33;;;20.40;49.30;;;;;;3145209;28;20432;-76
2021/05/15 01:18:02;;;;;;;2.65;2.40;;;20.40;49.30;;;;;;3147966;28;20044;-78
2021/05/15 01:19:33;;;;;;;2.15;2.00;;;20.40;49.40;;;;;;3148232;28;20044;-76
2021/05/15 01:21:05;;;;;;;2.40;2.20;;;20.40;49.40;;;;;;3148533;28;20055;-76
2021/05/15 01:22:36;;;;;;;2.50;2.30;;;20.40;49.40;;;;;;3148158;28;20467;-76
2021/05/15 01:24:08;;;;;;;2.45;2.17;;;20.40;49.40;;;;;;3147522;28;20126;-76
2021/05/15 01:25:39;;;;;;;2.95;2.40;;;20.40;49.40;;;;;;3148419;28;20063;-76
2021/05/15 01:27:13;;;;;;;2.45;2.17;;;20.40;49.50;;;;;;3148483;28;20048;-76
2021/05/15 01:28:44;;;;;;;2.30;2.10;;;20.40;49.40;;;;;;3147663;28;20059;-76
2021/05/15 01:30:16;;;;;;;2.30;2.10;;;20.40;49.40;;;;;;3147101;28;20052;-76
2021/05/15 01:31:48;;;;;;;2.50;2.30;;;20.40;49.40;;;;;;3148390;28;20048;-76
2021/05/15 01:33:19;;;;;;;3.33;2.50;;;20.40;49.40;;;;;;3147804;28;20394;-76
2021/05/15 01:34:50;;;;;;;2.35;2.13;;;20.30;49.40;;;;;;3147989;28;20570;-76
2021/05/15 01:36:22;;;;;;;2.45;2.25;;;20.30;49.40;;;;;;3148184;28;20114;-78
2021/05/15 01:37:56;;;;;;;2.28;2.03;;;20.30;49.40;;;;;;3148338;28;20564;-76
2021/05/15 01:39:27;;;;;;;2.53;2.33;;;20.30;49.40;;;;;;3147733;28;20060;-76
2021/05/15 01:41:01;;;;;;;2.55;2.28;;;20.40;49.50;;;;;;3147910;28;20053;-76
2021/05/15 01:42:32;;;;;;;2.42;2.08;;;20.30;49.40;;;;;;3148018;28;20044;-76
2021/05/15 01:44:04;;;;;;;2.83;2.20;;;20.30;49.30;;;;;;3147597;28;20075;-77
2021/05/15 01:45:35;;;;;;;2.42;2.10;;;20.30;49.40;;;;;;3147116;28;20098;-76
2021/05/15 01:47:06;;;;;;;2.45;2.17;;;20.30;50.00;;;;;;3148055;28;20074;-76
2021/05/15 01:48:37;;;;;;;2.50;2.30;;;20.30;49.40;;;;;;3147724;28;20070;-77
2021/05/15 01:50:12;;;;;;;2.25;2.03;;;20.30;49.40;;;;;;3148000;28;20040;-76
2021/05/15 01:51:44;;;;;;;2.97;2.45;;;20.40;49.40;;;;;;3147955;28;20047;-76
2021/05/15 01:53:15;;;;;;;2.80;2.47;;;20.30;49.30;;;;;;3147610;28;20040;-76
2021/05/15 01:54:46;;;;;;;2.60;2.40;;;20.40;49.40;;;;;;3148076;28;20052;-76
2021/05/15 01:56:19;;;;;;;2.42;2.22;;;20.40;49.40;;;;;;3148270;28;20048;-76
2021/05/15 01:57:50;;;;;;;2.85;2.63;;;20.40;49.40;;;;;;3147904;28;20048;-76
2021/05/15 01:59:21;;;;;;;2.50;2.30;;;20.40;49.30;;;;;;3147439;28;20040;-76
2021/05/15 02:00:52;;;;;;;2.60;2.40;;;20.40;49.30;;;;;;3146903;28;20044;-76
2021/05/15 02:02:23;;;;;;;2.88;2.58;;;20.40;49.30;;;;;;3147725;28;20055;-76
2021/05/15 02:03:54;;;;;;;2.40;2.20;;;20.40;49.30;;;;;;3147246;28;20045;-76
2021/05/15 02:05:25;;;;;;;2.65;2.45;;;20.40;49.30;;;;;;3147892;28;20048;-76
2021/05/15 02:06:57;;;;;;;2.50;2.30;;;20.40;49.40;;;;;;3147979;28;20503;-77
2021/05/15 02:08:28;;;;;;;2.90;2.60;;;20.30;49.30;;;;;;3147170;28;20071;-76
2021/05/15 02:09:59;;;;;;;2.60;2.40;;;20.40;49.30;;;;;;3147629;28;20444;-76
2021/05/15 02:11:30;;;;;;;2.67;2.47;;;20.30;49.30;;;;;;3147917;28;20049;-77
2021/05/15 02:13:01;;;;;;;2.60;2.40;;;20.40;49.30;;;;;;3147465;28;20059;-76
2021/05/15 02:14:32;;;;;;;3.75;2.30;;;20.30;49.30;;;;;;3147594;28;20420;-76
2021/05/15 02:16:05;;;;;;;2.38;2.17;;;20.30;49.40;;;;;;3147032;28;20178;-77
2021/05/15 02:17:36;;;;;;;3.05;2.30;;;20.30;49.30;;;;;;3147824;28;20123;-75
2021/05/15 02:19:07;;;;;;;2.50;2.30;;;20.40;49.30;;;;;;3147225;28;20045;-78
2021/05/15 02:20:38;;;;;;;2.60;2.40;;;20.30;49.30;;;;;;3147361;28;20406;-76
2021/05/15 02:22:10;;;;;;;2.58;2.38;;;20.30;49.30;;;;;;3147638;28;20056;-77
2021/05/15 02:23:41;;;;;;;2.58;2.38;;;20.30;49.30;;;;;;3147267;28;20048;-76
2021/05/15 02:25:12;;;;;;;2.55;2.33;;;20.30;49.30;;;;;;3147598;28;20493;-76
2021/05/15 02:26:43;;;;;;;2.70;2.50;;;20.30;49.30;;;;;;3147494;28;20045;-76
2021/05/15 02:28:14;;;;;;;3.35;2.22;;;20.30;49.30;;;;;;3146163;28;20045;-77
2021/05/15 02:29:45;;;;;;;2.67;2.47;;;20.30;49.30;;;;;;3147119;28;20052;-76
2021/05/15 02:31:16;;;;;;;2.67;2.22;;;20.30;49.30;;;;;;3146745;28;20053;-76
2021/05/15 02:32:48;;;;;;;2.20;2.00;;;20.30;49.30;;;;;;3147490;28;20074;-76
2021/05/15 02:34:19;;;;;;;3.45;2.53;;;20.30;49.30;;;;;;3146904;28;20049;-76
2021/05/15 02:35:50;;;;;;;2.97;2.20;;;20.40;49.40;;;;;;3147483;28;20048;-77
2021/05/15 02:37:21;;;;;;;2.60;2.40;;;20.30;49.30;;;;;;3147369;28;20064;-76
2021/05/15 02:38:52;;;;;;;2.65;2.45;;;20.40;49.30;;;;;;3147012;28;20052;-76
2021/05/15 02:40:24;;;;;;;3.05;2.60;;;20.30;49.30;;;;;;3147249;28;20048;-76
2021/05/15 02:41:55;;;;;;;2.42;2.22;;;20.30;49.30;;;;;;3147417;28;20493;-77
2021/05/15 02:43:26;;;;;;;2.80;2.60;;;20.30;49.30;;;;;;3146792;28;20127;-76
2021/05/15 02:44:57;;;;;;;2.33;2.13;;;20.30;49.40;;;;;;3147436;28;20040;-77
2021/05/15 02:46:28;;;;;;;2.47;2.25;;;20.30;49.30;;;;;;3146662;28;20432;-77
2021/05/15 02:47:59;;;;;;;2.63;2.42;;;20.30;49.30;;;;;;3146810;28;20056;-76
2021/05/15 02:49:30;;;;;;;2.80;2.28;;;20.30;49.20;;;;;;3147291;28;20106;-76
2021/05/15 02:51:01;;;;;;;2.50;2.30;;;20.30;49.20;;;;;;3147287;28;20056;-76
2021/05/15 02:52:32;;;;;;;3.22;2.45;;;20.30;49.30;;;;;;3147277;28;20615;-76
2021/05/15 02:54:03;;;;;;;2.50;2.30;;;20.30;49.30;;;;;;3146857;28;20044;-77
2021/05/15 02:55:35;;;;;;;2.72;2.53;;;20.30;49.30;;;;;;3147304;28;20497;-76
2021/05/15 02:57:06;;;;;;;3.05;2.67;;;20.30;49.20;;;;;;3147339;28;20052;-76
2021/05/15 02:58:37;;;;;;;2.58;2.38;;;20.30;49.20;;;;;;3146543;28;20402;-76
2021/05/15 03:00:09;;;;;;;2.90;2.60;;;20.40;49.20;;;;;;3146173;28;20053;-76
2021/05/15 03:01:40;;;;;;;2.72;2.40;;;20.30;49.20;;;;;;3147081;28;20044;-76
2021/05/15 03:03:12;;;;;;;2.72;2.47;;;20.30;49.20;;;;;;3146682;28;20521;-76
2021/05/15 03:04:42;;;;;;;3.00;2.70;;;20.30;49.20;;;;;;3146890;28;20048;-76
2021/05/15 03:06:14;;;;;;;2.75;2.47;;;20.30;49.20;;;;;;3147137;28;20044;-76
2021/05/15 03:07:46;;;;;;;2.97;2.45;;;20.30;49.20;;;;;;3147030;28;20466;-76
2021/05/15 03:09:17;;;;;;;3.22;2.70;;;20.30;49.30;;;;;;3146810;28;20440;-76
2021/05/15 03:10:48;;;;;;;3.10;2.80;;;20.30;49.20;;;;;;3146715;28;20052;-76
2021/05/15 03:12:19;;;;;;;2.70;2.50;;;20.30;49.20;;;;;;3147046;28;20643;-76
2021/05/15 03:13:50;;;;;;;2.88;2.65;;;20.30;49.20;;;;;;3146554;28;20412;-77
2021/05/15 03:15:22;;;;;;;2.90;2.70;;;20.30;49.30;;;;;;3146184;28;20052;-76
2021/05/15 03:16:52;;;;;;;2.80;2.50;;;20.30;49.20;;;;;;3146881;28;20505;-76
2021/05/15 03:18:23;;;;;;;2.58;2.38;;;20.30;49.20;;;;;;3147030;28;20040;-76
2021/05/15 03:19:54;;;;;;;2.90;2.70;;;20.30;49.30;;;;;;3147626;28;20055;-77
2021/05/15 03:21:26;;;;;;;3.10;2.72;;;20.30;49.30;;;;;;3147639;28;20098;-76
2021/05/15 03:22:58;;;;;;;3.00;2.70;;;20.30;49.20;;;;;;3146881;28;20045;-76
2021/05/15 03:24:28;;;;;;;2.92;2.63;;;20.30;49.20;;;;;;3146914;28;20132;-76
2021/05/15 03:26:00;;;;;;;2.78;2.58;;;20.30;49.20;;;;;;3147119;28;20079;-76
2021/05/15 03:27:30;;;;;;;2.95;2.70;;;20.30;49.20;;;;;;3146690;28;20068;-77
2021/05/15 03:29:02;;;;;;;3.38;2.50;;;20.30;49.20;;;;;;3146381;28;20106;-76
2021/05/15 03:30:33;;;;;;;3.08;2.78;;;20.30;49.20;;;;;;3145732;28;20638;-76
2021/05/15 03:32:04;;;;;;;2.58;2.38;;;20.30;49.30;;;;;;3146699;28;20055;-76
2021/05/15 03:33:36;;;;;;;3.05;2.83;;;20.30;49.30;;;;;;3146297;28;20036;-76
2021/05/15 03:35:07;;;;;;;3.00;2.70;;;20.30;49.20;;;;;;3146660;28;20065;-76
2021/05/15 03:36:38;;;;;;;2.75;2.55;;;20.30;49.20;;;;;;3146740;28;20052;-77
2021/05/15 03:38:11;;;;;;;3.55;2.80;;;20.30;49.10;;;;;;3146171;28;20053;-76
2021/05/15 03:39:42;;;;;;;2.90;2.70;;;20.30;49.10;;;;;;3146160;28;20045;-76
2021/05/15 03:41:13;;;;;;;3.15;2.50;;;20.30;49.20;;;;;;3146712;28;20056;-76
2021/05/15 03:42:47;;;;;;;2.92;2.72;;;20.30;49.20;;;;;;3146568;28;20056;-76
2021/05/15 03:44:18;;;;;;;3.05;2.75;;;20.30;49.20;;;;;;3145886;28;20072;-77
2021/05/15 03:45:51;;;;;;;2.78;2.58;;;20.30;49.20;;;;;;3145919;28;20049;-76
2021/05/15 03:47:22;;;;;;;2.85;2.65;;;20.30;49.20;;;;;;3146693;28;20528;-78
2021/05/15 03:48:53;;;;;;;2.70;2.50;;;20.30;49.10;;;;;;3146225;28;20048;-76
2021/05/15 03:50:25;;;;;;;3.03;2.70;;;20.30;49.20;;;;;;3146268;28;20056;-76
2021/05/15 03:51:56;;;;;;;2.85;2.65;;;20.30;49.20;;;;;;3146687;28;20136;-78
2021/05/15 03:53:28;;;;;;;3.33;2.83;;;20.30;49.20;;;;;;3146122;28;20045;-77
2021/05/15 03:55:00;;;;;;;2.88;2.67;;;20.30;49.20;;;;;;3146557;28;20489;-76
2021/05/15 03:56:31;;;;;;;3.15;2.85;;;20.30;49.20;;;;;;3146524;28;20052;-76
2021/05/15 03:58:04;;;;;;;2.85;2.65;;;20.30;49.20;;;;;;3146168;28;20048;-76
2021/05/15 03:59:35;;;;;;;3.70;2.88;;;20.30;49.10;;;;;;3146439;28;20052;-76
2021/05/15 04:01:05;;;;;;;2.90;2.70;;;20.30;49.20;;;;;;3145558;28;20052;-76
2021/05/15 04:02:37;;;;;;;2.70;2.50;;;20.30;49.20;;;;;;3146383;28;20052;-77
2021/05/15 04:04:07;;;;;;;2.95;2.65;;;20.30;49.10;;;;;;3145819;28;20047;-76
2021/05/15 04:05:38;;;;;;;2.97;2.78;;;20.30;49.20;;;;;;3146702;28;20044;-76
2021/05/15 04:07:09;;;;;;;3.00;2.75;;;20.30;49.20;;;;;;3146372;28;20052;-76
2021/05/15 04:08:41;;;;;;;3.67;2.65;;;20.30;49.20;;;;;;3145897;28;20040;-76
2021/05/15 04:10:13;;;;;;;3.28;2.97;;;20.30;49.20;;;;;;3146440;28;20052;-77
2021/05/15 04:11:44;;;;;;;3.03;2.72;;;20.30;49.20;;;;;;3146608;28;20055;-76
2021/05/15 04:13:22;;;;;;;3.03;2.72;;;20.30;49.20;;;;;;3145949;28;20052;-77
2021/05/15 04:15:03;;;;;;;3.40;3.10;;;20.30;49.20;;;;;;3146385;28;20075;-76
2021/05/15 04:16:47;;;;;;;3.22;2.90;;;20.30;49.20;;;;;;3145838;28;20147;-76
2021/05/15 04:18:18;;;;;;;2.72;2.53;;;20.30;49.20;;;;;;3145899;28;20051;-76
2021/05/15 04:19:49;;;;;;;2.80;2.60;;;20.30;49.20;;;;;;3145998;28;20067;-77
2021/05/15 04:21:20;;;;;;;3.72;3.08;;;20.30;49.20;;;;;;3146366;28;20146;-76
2021/05/15 04:22:51;;;;;;;2.70;2.50;;;20.30;49.20;;;;;;3146441;28;20049;-76
2021/05/15 04:24:25;;;;;;;3.00;2.70;;;20.30;49.20;;;;;;3145781;28;20045;-76
2021/05/15 04:25:56;;;;;;;3.00;2.75;;;20.30;49.20;;;;;;3146430;28;20044;-76
2021/05/15 04:27:27;;;;;;;2.78;2.58;;;20.30;49.20;;;;;;3146130;28;20075;-76
2021/05/15 04:28:59;;;;;;;3.05;2.75;;;20.30;49.10;;;;;;3145732;28;20048;-76
2021/05/15 04:30:30;;;;;;;3.65;2.90;;;20.30;49.10;;;;;;3145323;28;20037;-77
2021/05/15 04:32:01;;;;;;;3.40;3.10;;;20.30;49.10;;;;;;3146392;28;20186;-77
2021/05/15 04:33:32;;;;;;;3.03;2.83;;;20.30;49.10;;;;;;3145765;28;20477;-76
2021/05/15 04:35:03;;;;;;;3.05;2.78;;;20.30;49.10;;;;;;3146183;28;20053;-76
2021/05/15 04:36:34;;;;;;;3.10;2.80;;;20.30;49.10;;;;;;3146018;28;20044;-76
2021/05/15 04:38:06;;;;;;;2.72;2.53;;;20.30;49.10;;;;;;3145857;28;20429;-76
2021/05/15 04:39:38;;;;;;;3.50;3.20;;;20.30;49.10;;;;;;3145943;28;20479;-76
2021/05/15 04:41:09;;;;;;;3.28;2.60;;;20.30;49.10;;;;;;3146503;28;20436;-76
2021/05/15 04:42:40;;;;;;;3.38;2.95;;;20.30;49.10;;;;;;3145854;28;20052;-76
2021/05/15 04:44:12;;;;;;;2.90;2.70;;;20.30;49.10;;;;;;3145602;28;20677;-76
2021/05/15 04:45:43;;;;;;;3.00;2.80;;;20.30;49.20;;;;;;3145324;28;20442;-77
2021/05/15 04:47:14;;;;;;;3.35;3.05;;;20.30;49.20;;;;;;3146363;28;20420;-76
2021/05/15 04:48:45;;;;;;;3.03;2.72;;;20.30;49.10;;;;;;3145583;28;20049;-76
2021/05/15 04:50:16;;;;;;;3.17;2.88;;;20.30;49.20;;;;;;3146097;28;20052;-76
2021/05/15 04:51:47;;;;;;;2.97;2.78;;;20.30;49.10;;;;;;3147029;28;20049;-76
2021/05/15 04:53:18;;;;;;;3.20;2.90;;;20.30;49.20;;;;;;3148274;28;20825;-76
2021/05/15 04:54:50;;;;;;;3.17;2.90;;;20.30;49.20;;;;;;3148785;28;20421;-76
2021/05/15 04:56:21;;;;;;;3.15;2.88;;;20.30;49.10;;;;;;3148738;28;20044;-76
2021/05/15 04:57:52;;;;;;;3.40;3.10;;;20.30;49.20;;;;;;3148807;28;20420;-77
2021/05/15 04:59:23;;;;;;;3.10;2.80;;;20.30;49.20;;;;;;3147988;28;20048;-77
2021/05/15 05:00:54;;;;;;;3.58;3.00;;;20.30;49.20;;;;;;3147555;28;20049;-76
2021/05/15 05:02:25;;;;;;;3.20;2.78;;;20.30;49.20;;;;;;3148536;28;20409;-76
2021/05/15 05:03:56;;;;;;;3.55;3.10;;;20.30;49.10;;;;;;3148111;28;20451;-76
2021/05/15 05:05:27;;;;;;;3.28;2.83;;;20.30;49.10;;;;;;3148405;28;20049;-76
2021/05/15 05:06:59;;;;;;;3.00;2.80;;;20.30;49.10;;;;;;3148539;28;20098;-76
2021/05/15 05:08:30;;;;;;;3.20;2.90;;;20.30;49.20;;;;;;3147917;28;20114;-76
2021/05/15 05:10:02;;;;;;;3.30;3.00;;;20.30;49.10;;;;;;3148204;28;20056;-77
2021/05/15 05:11:33;;;;;;;3.67;3.38;;;20.30;49.10;;;;;;3148468;28;20060;-76
2021/05/15 05:13:04;;;;;;;3.13;2.83;;;20.30;49.10;;;;;;3148154;28;20056;-77
2021/05/15 05:14:37;;;;;;;3.25;2.95;;;20.30;49.20;;;;;;3148251;28;20052;-76
2021/05/15 05:16:08;;;;;;;3.20;2.92;;;20.30;49.10;;;;;;3147827;28;20508;-76
2021/05/15 05:17:39;;;;;;;3.42;3.13;;;20.30;49.10;;;;;;3148307;28;20049;-76
2021/05/15 05:19:12;;;;;;;3.28;3.00;;;20.30;49.10;;;;;;3147968;28;20124;-76
2021/05/15 05:20:43;;;;;;;3.70;3.35;;;20.30;49.10;;;;;;3148266;28;20178;-76
2021/05/15 05:22:14;;;;;;;3.72;3.42;;;20.30;49.10;;;;;;3148173;28;20040;-76
2021/05/15 05:23:46;;;;;;;3.28;2.92;;;20.30;49.00;;;;;;3147829;28;20060;-77
2021/05/15 05:25:17;;;;;;;3.00;2.80;;;20.30;49.10;;;;;;3148392;28;20048;-76
2021/05/15 05:26:48;;;;;;;3.20;2.90;;;20.30;49.10;;;;;;3148428;28;20052;-76
2021/05/15 05:28:23;;;;;;;3.30;3.00;;;20.30;49.10;;;;;;3147751;28;20047;-76
2021/05/15 05:29:55;;;;;;;3.83;2.78;;;20.30;49.20;;;;;;3148164;28;20419;-76
2021/05/15 05:31:26;;;;;;;2.95;2.75;;;20.30;49.10;;;;;;3147408;28;20040;-76
2021/05/15 05:32:57;;;;;;;3.20;2.92;;;20.30;49.10;;;;;;3147863;28;20045;-76
2021/05/15 05:34:28;;;;;;;3.33;3.03;;;20.30;49.10;;;;;;3147895;28;20052;-76
2021/05/15 05:35:59;;;;;;;3.22;2.70;;;20.30;49.00;;;;;;3148235;28;20183;-76
2021/05/15 05:37:30;;;;;;;3.08;2.80;;;20.30;49.10;;;;;;3148249;28;20075;-76
2021/05/15 05:39:02;;;;;;;3.30;3.00;;;20.30;49.00;;;;;;3149585;28;20048;-76
2021/05/15 05:40:34;;;;;;;3.30;3.00;;;20.30;49.10;;;;;;3148620;28;20052;-77
2021/05/15 05:42:06;;;;;;;2.90;2.70;;;20.30;49.10;;;;;;3148855;28;20052;-76
2021/05/15 05:43:36;;;;;;;3.17;2.88;;;20.30;49.10;;;;;;3148559;28;20041;-76
2021/05/15 05:45:09;;;;;;;3.05;2.75;;;20.30;49.10;;;;;;3148108;28;20416;-77
2021/05/15 05:46:40;;;;;;;3.17;2.88;;;20.30;49.20;;;;;;3148870;28;20585;-76
2021/05/15 05:48:11;;;;;;;3.10;2.85;;;20.30;49.10;;;;;;3148467;28;20060;-77
2021/05/15 05:49:42;;;;;;;3.05;2.78;;;20.30;49.10;;;;;;3147885;28;20056;-77
2021/05/15 05:51:13;;;;;;;3.17;2.88;;;20.30;49.10;;;;;;3147979;28;20057;-76
2021/05/15 05:52:44;;;;;;;3.30;2.88;;;20.30;49.10;;;;;;3147887;28;20539;-76
2021/05/15 05:54:16;;;;;;;3.45;3.10;;;20.30;49.10;;;;;;3147403;28;20643;-77
2021/05/15 05:55:48;;;;;;;2.80;2.60;;;20.30;49.10;;;;;;3147912;28;20052;-76
2021/05/15 05:57:18;;;;;;;3.25;2.88;;;20.30;49.10;;;;;;3147944;28;20052;-77
2021/05/15 05:58:49;;;;;;;2.90;2.70;;;20.30;49.00;;;;;;3147364;28;20041;-76
2021/05/15 06:00:21;;;;;;;3.42;3.13;;;20.30;49.00;;;;;;3147060;28;20052;-76
2021/05/15 06:01:52;;;;;;;7.00;2.95;;;20.30;49.00;;;;;;3147942;28;20083;-77
2021/05/15 06:03:23;;;;;;;3.05;2.70;;;20.30;48.90;;;;;;3146956;28;20071;-76
2021/05/15 06:04:54;;;;;;;2.90;2.70;;;20.40;49.00;;;;;;3147860;28;20488;-77
2021/05/15 06:06:25;;;;;;;3.08;2.80;;;20.40;48.90;;;;;;3148074;28;20052;-76
2021/05/15 06:08:04;;;;;;;2.72;2.53;;;20.40;48.90;;;;;;3147296;28;20554;-76
2021/05/15 06:09:35;;;;;;;3.25;2.72;;;20.40;49.00;;;;;;3147639;28;20052;-76
2021/05/15 06:11:07;;;;;;;3.55;2.70;;;20.30;48.90;;;;;;3147864;28;20044;-77
2021/05/15 06:12:38;;;;;;;2.80;2.60;;;20.40;49.00;;;;;;3147767;28;20535;-75
2021/05/15 06:14:09;;;;;;;3.00;2.80;;;20.30;48.80;;;;;;3147228;28;20041;-76
2021/05/15 06:15:41;;;;;;;2.83;2.63;;;20.40;48.90;;;;;;3146922;28;20048;-77
2021/05/15 06:17:12;;;;;;;3.10;2.80;;;20.40;48.90;;;;;;3147672;28;20049;-76
2021/05/15 06:18:43;;;;;;;3.47;3.17;;;20.40;49.00;;;;;;3146980;28;20036;-77
2021/05/15 06:20:14;;;;;;;3.40;3.10;;;20.30;48.90;;;;;;3147464;28;20505;-77
2021/05/15 06:21:45;;;;;;;2.67;2.42;;;20.30;48.90;;;;;;3147627;28;20098;-77
2021/05/15 06:23:16;;;;;;;3.13;2.83;;;20.40;49.00;;;;;;3147276;28;20044;-76
2021/05/15 06:24:47;;;;;;;3.15;2.85;;;20.30;49.00;;;;;;3147497;28;20048;-77
2021/05/15 06:26:19;;;;;;;3.00;2.70;;;20.30;49.00;;;;;;3147533;28;20055;-76
2021/05/15 06:27:50;;;;;;;3.25;2.95;;;20.30;48.90;;;;;;3147421;28;20048;-76
2021/05/15 06:29:21;;;;;;;3.35;3.05;;;20.30;49.00;;;;;;3146988;28;20527;-76
2021/05/15 06:30:52;;;;;;;2.95;2.75;;;20.30;49.00;;;;;;3146515;28;20543;-76
2021/05/15 06:32:23;;;;;;;2.78;2.58;;;20.30;49.00;;;;;;3147435;28;20048;-76
2021/05/15 06:33:54;;;;;;;4.07;3.30;;;20.30;48.90;;;;;;3147071;28;20041;-76
2021/05/15 06:35:26;;;;;;;3.03;2.80;;;20.30;49.00;;;;;;3147419;28;20048;-76
2021/05/15 06:36:57;;;;;;;3.08;2.67;;;20.30;49.00;;;;;;3147548;28;20552;-76
2021/05/15 06:38:28;;;;;;;3.08;2.85;;;20.30;49.00;;;;;;3146914;28;20047;-76
2021/05/15 06:39:59;;;;;;;3.03;2.78;;;20.30;48.90;;;;;;3147229;28;20048;-76
2021/05/15 06:41:31;;;;;;;3.55;2.97;;;20.30;49.00;;;;;;3147377;28;20045;-76
2021/05/15 06:43:01;;;;;;;3.10;2.90;;;20.30;49.00;;;;;;3146892;28;20049;-76
2021/05/15 06:44:33;;;;;;;2.90;2.60;;;20.30;49.40;;;;;;3147141;28;20052;-76
2021/05/15 06:46:04;;;;;;;2.78;2.58;;;20.30;48.90;;;;;;3146557;28;20049;-77
2021/05/15 06:47:34;;;;;;;4.15;3.45;;;20.30;48.90;;;;;;3147184;28;20467;-76
2021/05/15 06:49:06;;;;;;;3.20;2.90;;;20.30;48.90;;;;;;3146775;28;20044;-76
2021/05/15 06:50:37;;;;;;;3.00;2.80;;;20.40;48.90;;;;;;3147098;28;20110;-76
2021/05/15 06:52:08;;;;;;;2.60;2.40;;;20.40;48.90;;;;;;3147290;28;20048;-77
2021/05/15 06:53:39;;;;;;;2.80;2.60;;;20.40;48.90;;;;;;3146649;28;20037;-77
2021/05/15 06:55:11;;;;;;;3.10;2.80;;;20.40;48.90;;;;;;3147243;28;20075;-76
2021/05/15 06:56:43;;;;;;;3.10;2.80;;;20.40;48.80;;;;;;3147387;28;20052;-76
2021/05/15 06:58:14;;;;;;;3.33;3.03;;;20.30;48.90;;;;;;3146764;28;20055;-76
2021/05/15 06:59:45;;;;;;;3.30;3.00;;;20.30;48.90;;;;;;3146702;28;20044;-78
2021/05/15 07:01:16;;;;;;;2.95;2.75;;;20.30;48.90;;;;;;3146404;28;20059;-76
2021/05/15 07:02:47;;;;;;;3.08;2.83;;;20.30;48.90;;;;;;3147309;28;20044;-76
2021/05/15 07:04:18;;;;;;;3.53;3.00;;;20.30;48.90;;;;;;3146322;28;20041;-76
2021/05/15 07:05:49;;;;;;;3.10;2.80;;;20.30;49.00;;;;;;3146954;28;20053;-76
2021/05/15 07:07:21;;;;;;;3.28;2.97;;;20.30;48.90;;;;;;3146988;28;20055;-76
2021/05/15 07:08:52;;;;;;;3.10;2.80;;;20.30;48.90;;;;;;3146585;28;20078;-76
2021/05/15 07:10:23;;;;;;;3.78;2.88;;;20.30;48.90;;;;;;3146831;28;20048;-76
2021/05/15 07:11:55;;;;;;;3.15;2.92;;;20.40;48.90;;;;;;3147163;28;20055;-76
2021/05/15 07:13:27;;;;;;;2.90;2.70;;;20.30;48.90;;;;;;3146581;28;20749;-78
2021/05/15 07:14:57;;;;;;;3.47;2.90;;;20.30;48.90;;;;;;3146327;28;20055;-77
2021/05/15 07:16:28;;;;;;;2.78;2.58;;;20.30;48.90;;;;;;3146055;28;20043;-76
2021/05/15 07:18:00;;;;;;;2.95;2.75;;;20.30;48.90;;;;;;3146589;28;20078;-76
2021/05/15 07:19:31;;;;;;;3.20;2.90;;;20.30;48.90;;;;;;3147066;28;20489;-76
2021/05/15 07:21:03;;;;;;;3.28;2.97;;;20.30;48.80;;;;;;3146875;28;20135;-76
2021/05/15 07:22:34;;;;;;;3.20;2.90;;;20.30;48.80;;;;;;3146769;28;20127;-76
2021/05/15 07:24:05;;;;;;;3.40;3.10;;;20.30;48.90;;;;;;3146303;28;20051;-76
2021/05/15 07:25:36;;;;;;;3.30;3.00;;;20.30;48.90;;;;;;3147135;28;20044;-76
2021/05/15 07:27:08;;;;;;;3.97;3.10;;;20.30;48.90;;;;;;3146905;28;20052;-76
2021/05/15 07:28:39;;;;;;;3.30;3.00;;;20.30;48.90;;;;;;3146229;28;20040;-77
2021/05/15 07:30:12;;;;;;;3.33;3.03;;;20.30;48.90;;;;;;3146233;28;20048;-77
2021/05/15 07:31:43;;;;;;;3.20;2.90;;;20.30;48.90;;;;;;3146820;28;20048;-76
2021/05/15 07:33:14;;;;;;;3.40;2.90;;;20.30;48.90;;;;;;3146345;28;20055;-77
2021/05/15 07:34:46;;;;;;;3.35;3.05;;;20.30;48.90;;;;;;3146616;28;20634;-76
2021/05/15 07:36:17;;;;;;;3.15;2.85;;;20.30;48.90;;;;;;3146962;28;20051;-76
2021/05/15 07:37:49;;;;;;;3.28;2.90;;;20.30;48.90;;;;;;3146629;28;20131;-76
2021/05/15 07:39:20;;;;;;;3.40;3.10;;;20.30;48.90;;;;;;3146344;28;20573;-76
2021/05/15 07:40:51;;;;;;;3.95;3.33;;;20.30;48.90;;;;;;3146494;28;20555;-76
2021/05/15 07:42:23;;;;;;;3.15;2.85;;;20.30;48.90;;;;;;3146934;28;20053;-76
2021/05/15 07:43:54;;;;;;;3.20;2.90;;;20.30;48.90;;;;;;3145676;28;20043;-77
2021/05/15 07:45:25;;;;;;;3.70;3.10;;;20.30;48.80;;;;;;3145919;28;20067;-76
2021/05/15 07:46:56;;;;;;;3.33;3.03;;;20.30;48.80;;;;;;3146851;28;20473;-76
2021/05/15 07:48:29;;;;;;;3.50;3.00;;;20.30;48.80;;;;;;3145971;28;20045;-76
2021/05/15 07:50:00;;;;;;;2.97;2.78;;;20.30;48.80;;;;;;3146651;28;20055;-78
2021/05/15 07:51:31;;;;;;;3.22;2.80;;;20.30;48.90;;;;;;3146774;28;20065;-78
2021/05/15 07:53:02;;;;;;;3.42;2.90;;;20.30;48.80;;;;;;3146075;28;20052;-78
2021/05/15 07:54:33;;;;;;;3.22;2.97;;;20.40;48.80;;;;;;3146269;28;20044;-78
2021/05/15 07:56:04;;;;;;;3.28;2.92;;;20.30;48.80;;;;;;3146705;28;20040;-77